createdAt,value
2018-12-06T00:01:22.998Z,17.95
2018-12-06T00:03:51.885Z,16.25
2018-12-06T00:06:21.760Z,17.27
2018-12-06T00:08:50.986Z,19.82
2018-12-06T00:11:19.736Z,17.60
2018-12-06T00:13:49.718Z,18.55
2018-12-06T00:16:19.640Z,16.27
2018-12-06T00:18:54.183Z,15.75
2018-12-06T00:21:23.352Z,14.58
2018-12-06T00:23:52.212Z,16.85
2018-12-06T00:26:21.109Z,16.02
2018-12-06T00:28:49.886Z,12.65
2018-12-06T00:31:19.951Z,16.32
2018-12-06T00:33:49.754Z,14.73
2018-12-06T00:36:18.283Z,11.80
2018-12-06T00:38:48.078Z,13.05
2018-12-06T00:41:16.693Z,13.10
2018-12-06T00:43:45.225Z,12.20
2018-12-06T00:46:13.751Z,14.05
2018-12-06T00:48:42.439Z,12.58
2018-12-06T00:51:12.466Z,11.25
2018-12-06T00:53:41.488Z,12.55
2018-12-06T00:56:10.132Z,9.28
2018-12-06T00:58:38.851Z,11.45
2018-12-06T01:01:09.217Z,11.48
2018-12-06T01:03:37.829Z,11.45
2018-12-06T01:06:06.718Z,9.25
2018-12-06T01:08:35.976Z,7.58
2018-12-06T01:11:05.317Z,11.55
2018-12-06T01:13:34.201Z,10.45
2018-12-06T01:16:03.097Z,9.90
2018-12-06T01:18:31.994Z,10.60
2018-12-06T01:21:00.777Z,10.05
2018-12-06T01:23:29.837Z,10.80
2018-12-06T01:25:59.438Z,8.80
2018-12-06T01:28:28.481Z,10.28
2018-12-06T01:31:00.629Z,7.70
2018-12-06T01:33:30.610Z,8.93
2018-12-06T01:35:59.104Z,9.93
2018-12-06T01:38:27.569Z,8.78
2018-12-06T01:40:56.673Z,9.10
2018-12-06T01:43:25.480Z,9.90
2018-12-06T01:45:54.069Z,9.13
2018-12-06T01:48:22.959Z,8.50
2018-12-06T01:50:52.937Z,9.20
2018-12-06T01:53:21.704Z,9.08
2018-12-06T01:55:52.007Z,8.50
2018-12-06T01:58:21.523Z,7.72
2018-12-06T02:00:50.268Z,9.10
2018-12-06T02:03:18.854Z,10.45
2018-12-06T02:05:47.619Z,10.53
2018-12-06T02:08:18.050Z,9.60
2018-12-06T02:10:46.666Z,9.98
2018-12-06T02:13:15.645Z,8.93
2018-12-06T02:15:44.334Z,9.45
2018-12-06T02:18:13.032Z,9.30
2018-12-06T02:20:42.327Z,8.03
2018-12-06T02:23:12.001Z,9.63
2018-12-06T02:25:40.745Z,9.48
2018-12-06T02:28:09.180Z,8.60
2018-12-06T02:30:38.528Z,10.23
2018-12-06T02:33:08.932Z,9.85
2018-12-06T02:35:37.690Z,9.23
2018-12-06T02:38:06.344Z,10.93
2018-12-06T02:40:35.672Z,8.55
2018-12-06T02:43:06.341Z,9.40
2018-12-06T02:45:34.889Z,10.08
2018-12-06T02:51:11.159Z,8.90
2018-12-06T02:53:39.511Z,10.82
2018-12-06T02:56:08.062Z,9.43
2018-12-06T02:58:37.043Z,10.43
2018-12-06T03:01:06.731Z,10.80
2018-12-06T03:03:35.354Z,8.33
2018-12-06T03:06:04.186Z,9.38
2018-12-06T03:08:32.739Z,9.15
2018-12-06T03:11:02.993Z,9.48
2018-12-06T03:13:31.495Z,10.38
2018-12-06T03:16:01.509Z,10.23
2018-12-06T03:18:29.983Z,10.18
2018-12-06T03:20:58.591Z,10.65
2018-12-06T03:23:28.078Z,11.08
2018-12-06T03:25:57.472Z,10.88
2018-12-06T03:28:25.950Z,11.10
2018-12-06T03:30:54.539Z,11.20
2018-12-06T03:33:24.879Z,11.80
2018-12-06T03:35:53.556Z,10.98
2018-12-06T03:38:22.370Z,11.63
2018-12-06T03:40:52.027Z,12.93
2018-12-06T03:43:20.662Z,10.28
2018-12-06T03:45:49.183Z,11.63
2018-12-06T03:48:17.788Z,15.80
2018-12-06T03:50:46.568Z,10.72
2018-12-06T03:53:15.197Z,12.73
2018-12-06T03:55:44.350Z,11.28
2018-12-06T03:58:12.829Z,10.95
2018-12-06T04:00:41.462Z,12.85
2018-12-06T04:03:09.868Z,12.05
2018-12-06T04:05:38.991Z,9.55
2018-12-06T04:08:07.676Z,9.05
2018-12-06T04:10:37.069Z,9.75
2018-12-06T04:13:05.684Z,10.40
2018-12-06T04:15:35.040Z,10.88
2018-12-06T04:18:03.578Z,11.48
2018-12-06T04:20:32.220Z,10.10
2018-12-06T04:23:01.712Z,13.83
2018-12-06T04:25:30.080Z,9.43
2018-12-06T04:27:59.357Z,11.22
2018-12-06T04:30:27.912Z,9.88
2018-12-06T04:32:57.100Z,8.75
2018-12-06T04:35:25.644Z,12.03
2018-12-06T04:37:54.142Z,10.65
2018-12-06T04:40:23.771Z,8.63
2018-12-06T04:42:53.147Z,9.80
2018-12-06T04:45:22.423Z,12.25
2018-12-06T04:47:51.147Z,8.80
2018-12-06T04:50:20.326Z,8.65
2018-12-06T04:52:49.758Z,8.45
2018-12-06T04:55:19.134Z,8.40
2018-12-06T04:57:47.741Z,7.65
2018-12-06T05:00:16.747Z,8.10
2018-12-06T05:02:46.068Z,7.75
2018-12-06T05:05:16.187Z,6.70
2018-12-06T05:07:44.684Z,6.05
2018-12-06T05:10:14.000Z,8.78
2018-12-06T05:12:42.451Z,7.80
2018-12-06T05:15:12.311Z,7.50
2018-12-06T05:17:41.695Z,6.75
2018-12-06T05:20:10.064Z,7.55
2018-12-06T05:22:39.999Z,11.33
2018-12-06T05:25:09.899Z,12.10
2018-12-06T05:27:38.395Z,14.13
2018-12-06T05:30:08.464Z,12.40
2018-12-06T05:32:37.319Z,13.70
2018-12-06T05:35:06.176Z,11.60
2018-12-06T05:37:34.863Z,18.23
2018-12-06T05:40:04.930Z,31.50
2018-12-06T05:42:33.560Z,60.43
2018-12-06T05:45:02.847Z,35.65
2018-12-06T05:47:31.800Z,31.05
2018-12-06T05:50:01.183Z,25.37
2018-12-06T05:52:30.662Z,19.50
2018-12-06T05:54:59.523Z,17.30
2018-12-06T05:57:28.822Z,17.40
2018-12-06T05:59:57.695Z,13.43
2018-12-06T06:02:26.990Z,15.83
2018-12-06T06:04:55.773Z,15.60
2018-12-06T06:07:25.150Z,14.20
2018-12-06T06:09:54.332Z,11.97
2018-12-06T06:12:23.524Z,12.00
2018-12-06T06:14:53.033Z,12.18
2018-12-06T06:17:21.964Z,10.38
2018-12-06T06:19:50.760Z,12.23
2018-12-06T06:22:21.565Z,10.25
2018-12-06T06:24:50.919Z,9.90
2018-12-06T06:27:19.813Z,12.88
2018-12-06T06:29:48.764Z,10.98
2018-12-06T06:32:17.564Z,12.93
2018-12-06T06:34:47.023Z,13.32
2018-12-06T06:37:16.354Z,11.53
2018-12-06T06:39:45.610Z,14.75
2018-12-06T06:42:14.954Z,15.65
2018-12-06T06:44:44.491Z,15.30
2018-12-06T06:47:13.266Z,15.43
2018-12-06T06:49:42.954Z,16.85
2018-12-06T06:52:12.275Z,18.17
2018-12-06T06:54:41.243Z,16.60
2018-12-06T06:57:10.069Z,15.08
2018-12-06T06:59:40.014Z,18.35
2018-12-06T07:02:09.951Z,17.20
2018-12-06T07:04:39.232Z,24.15
2018-12-06T07:07:08.391Z,33.48
2018-12-06T07:09:37.196Z,39.03
2018-12-06T07:12:06.509Z,31.30
2018-12-06T07:14:36.187Z,23.30
2018-12-06T07:17:05.479Z,20.00
2018-12-06T07:19:34.385Z,21.33
2018-12-06T07:22:03.902Z,22.52
2018-12-06T07:24:32.926Z,19.17
2018-12-06T07:27:01.935Z,18.98
2018-12-06T07:29:30.971Z,17.75
2018-12-06T07:32:00.500Z,16.10
2018-12-06T07:34:29.502Z,15.78
2018-12-06T07:36:58.423Z,13.72
2018-12-06T07:39:27.527Z,13.98
2018-12-06T07:41:56.355Z,15.88
2018-12-06T07:44:25.915Z,11.95
2018-12-06T07:46:55.348Z,11.93
2018-12-06T07:49:24.404Z,12.05
2018-12-06T07:51:53.681Z,12.75
2018-12-06T07:54:22.747Z,10.60
2018-12-06T07:56:52.531Z,9.08
2018-12-06T07:59:22.543Z,10.90
2018-12-06T08:01:51.650Z,12.80
2018-12-06T08:04:20.855Z,13.28
2018-12-06T08:06:50.073Z,11.38
2018-12-06T08:09:18.859Z,13.10
2018-12-06T08:11:47.779Z,11.18
2018-12-06T08:14:18.110Z,10.43
2018-12-06T08:16:47.043Z,13.35
2018-12-06T08:19:16.301Z,11.20
2018-12-06T08:21:45.052Z,9.15
2018-12-06T08:24:13.883Z,9.38
2018-12-06T08:26:43.079Z,10.58
2018-12-06T08:29:11.881Z,9.85
2018-12-06T08:31:40.822Z,13.15
2018-12-06T08:34:10.103Z,10.58
2018-12-06T08:36:39.055Z,12.85
2018-12-06T08:39:08.041Z,8.78
2018-12-06T08:41:36.899Z,9.78
2018-12-06T08:44:05.973Z,10.00
2018-12-06T08:46:35.439Z,9.93
2018-12-06T08:49:04.190Z,9.85
2018-12-06T08:51:32.851Z,9.20
2018-12-06T08:54:03.565Z,9.18
2018-12-06T08:56:32.400Z,10.78
2018-12-06T08:59:01.427Z,10.93
2018-12-06T09:01:30.410Z,11.57
2018-12-06T09:03:59.600Z,12.35
2018-12-06T09:06:28.708Z,8.45
2018-12-06T09:08:57.874Z,9.13
2018-12-06T09:11:26.796Z,10.55
2018-12-06T09:13:56.204Z,11.20
2018-12-06T09:16:25.036Z,10.00
2018-12-06T09:18:54.228Z,12.88
2018-12-06T09:21:23.164Z,12.60
2018-12-06T09:23:52.522Z,9.78
2018-12-06T09:26:21.339Z,12.20
2018-12-06T09:28:51.393Z,17.27
2018-12-06T09:31:21.188Z,14.75
2018-12-06T09:33:55.196Z,11.85
2018-12-06T09:36:23.979Z,12.33
2018-12-06T09:38:52.570Z,11.33
2018-12-06T09:41:22.689Z,14.15
2018-12-06T09:43:51.270Z,12.58
2018-12-06T09:46:20.065Z,13.25
2018-12-06T09:48:48.687Z,17.52
2018-12-06T09:51:17.221Z,14.85
2018-12-06T09:53:45.736Z,13.83
2018-12-06T09:56:16.492Z,15.13
2018-12-06T09:58:45.974Z,13.98
2018-12-06T10:01:14.376Z,11.35
2018-12-06T10:03:43.001Z,16.07
2018-12-06T10:06:12.570Z,13.13
2018-12-06T10:08:41.181Z,12.70
2018-12-06T10:11:11.382Z,14.53
2018-12-06T10:13:40.573Z,15.18
2018-12-06T10:16:10.760Z,13.68
2018-12-06T10:18:39.171Z,12.43
2018-12-06T10:21:08.803Z,16.48
2018-12-06T10:23:37.243Z,15.10
2018-12-06T10:26:05.646Z,15.03
2018-12-06T10:28:34.263Z,16.82
2018-12-06T10:31:04.109Z,17.77
2018-12-06T10:33:32.448Z,19.90
2018-12-06T10:36:01.392Z,15.53
2018-12-06T10:38:30.697Z,15.13
2018-12-06T10:41:00.568Z,15.28
2018-12-06T10:43:29.096Z,15.65
2018-12-06T10:45:58.313Z,14.05
2018-12-06T10:48:28.453Z,13.68
2018-12-06T10:51:07.674Z,13.43
2018-12-06T10:53:36.446Z,16.30
2018-12-06T10:56:06.074Z,15.60
2018-12-06T10:58:36.321Z,14.75
2018-12-06T11:01:12.155Z,15.05
2018-12-06T11:03:45.997Z,15.20
2018-12-06T11:06:14.558Z,18.37
2018-12-06T11:08:43.155Z,14.83
2018-12-06T11:11:14.130Z,13.30
2018-12-06T11:13:44.015Z,13.53
2018-12-06T11:16:12.736Z,14.30
2018-12-06T11:18:41.228Z,15.03
2018-12-06T11:21:11.575Z,13.43
2018-12-06T11:23:40.087Z,13.53
2018-12-06T11:26:08.601Z,14.18
2018-12-06T11:28:37.858Z,13.48
2018-12-06T11:31:07.334Z,15.00
2018-12-06T11:33:36.047Z,16.00
2018-12-06T11:36:05.749Z,13.50
2018-12-06T11:38:34.382Z,16.62
2018-12-06T11:41:02.942Z,15.18
2018-12-06T11:43:31.467Z,14.33
2018-12-06T11:46:00.806Z,13.98
2018-12-06T11:48:30.677Z,15.32
2018-12-06T11:50:59.276Z,14.18
2018-12-06T11:53:27.960Z,16.25
2018-12-06T11:55:56.961Z,15.32
2018-12-06T11:58:25.879Z,15.65
2018-12-06T12:00:54.527Z,16.48
2018-12-06T12:03:24.885Z,15.45
2018-12-06T12:05:58.714Z,17.45
2018-12-06T12:08:26.226Z,13.32
2018-12-06T12:10:55.096Z,18.25
2018-12-06T12:13:23.731Z,15.25
2018-12-06T12:15:52.272Z,14.45
2018-12-06T12:18:20.873Z,13.95
2018-12-06T12:20:49.700Z,14.25
2018-12-06T12:23:18.122Z,15.93
2018-12-06T12:25:47.943Z,15.63
2018-12-06T12:28:16.647Z,14.13
2018-12-06T12:30:45.207Z,18.05
2018-12-06T12:33:15.170Z,16.40
2018-12-06T12:35:44.495Z,15.40
2018-12-06T12:38:14.908Z,14.05
2018-12-06T12:40:44.924Z,13.95
2018-12-06T12:43:14.888Z,14.10
2018-12-06T12:45:45.034Z,15.10
2018-12-06T12:48:13.399Z,17.95
2018-12-06T12:50:41.967Z,16.15
2018-12-06T12:53:10.461Z,15.60
2018-12-06T12:55:39.839Z,19.20
2018-12-06T12:58:09.274Z,19.42
2018-12-06T13:00:37.760Z,19.48
2018-12-06T13:03:06.358Z,17.05
2018-12-06T13:05:36.699Z,17.15
2018-12-06T13:08:05.329Z,15.03
2018-12-06T13:10:33.827Z,17.98
2018-12-06T13:13:02.520Z,16.50
2018-12-06T13:15:31.309Z,15.80
2018-12-06T13:18:00.096Z,17.07
2018-12-06T13:20:28.940Z,17.30
2018-12-06T13:22:57.727Z,15.50
2018-12-06T13:25:26.548Z,16.23
2018-12-06T13:27:56.547Z,18.25
2018-12-06T13:30:25.810Z,25.43
2018-12-06T13:32:54.451Z,15.85
2018-12-06T13:35:24.760Z,21.40
2018-12-06T13:37:55.543Z,17.37
2018-12-06T13:40:25.464Z,19.07
2018-12-06T13:42:54.733Z,18.05
2018-12-06T13:45:24.554Z,18.95
2018-12-06T13:47:54.483Z,18.02
2018-12-06T13:50:23.344Z,15.63
2018-12-06T13:52:53.054Z,21.87
2018-12-06T13:55:23.516Z,16.57
2018-12-06T13:57:52.931Z,21.12
2018-12-06T14:00:23.058Z,16.50
2018-12-06T14:02:52.812Z,16.93
2018-12-06T14:05:23.267Z,17.75
2018-12-06T14:07:52.420Z,15.53
2018-12-06T14:10:21.104Z,18.02
2018-12-06T14:12:49.799Z,18.20
2018-12-06T14:15:18.362Z,17.02
2018-12-06T14:17:47.069Z,16.32
2018-12-06T14:20:15.975Z,15.68
2018-12-06T14:22:44.858Z,17.40
2018-12-06T14:25:13.915Z,18.05
2018-12-06T14:27:43.666Z,20.02
2018-12-06T14:30:12.874Z,19.55
2018-12-06T14:32:41.995Z,19.20
2018-12-06T14:35:11.110Z,23.98
2018-12-06T14:37:40.697Z,18.80
2018-12-06T14:40:09.865Z,30.72
2018-12-06T14:42:38.982Z,32.90
2018-12-06T14:45:08.712Z,32.48
2018-12-06T14:47:37.733Z,32.65
2018-12-06T14:50:06.461Z,23.65
2018-12-06T14:52:36.315Z,26.93
2018-12-06T14:55:06.768Z,26.30
2018-12-06T14:57:35.401Z,25.82
2018-12-06T15:00:04.928Z,33.25
2018-12-06T15:02:33.797Z,20.88
2018-12-06T15:05:02.314Z,23.85
2018-12-06T15:07:32.368Z,30.12
2018-12-06T15:10:00.992Z,25.00
2018-12-06T15:12:30.640Z,22.32
2018-12-06T15:14:59.948Z,24.63
2018-12-06T15:17:29.638Z,43.02
2018-12-06T15:19:59.826Z,36.80
2018-12-06T15:22:29.244Z,34.25
2018-12-06T15:24:58.145Z,35.38
2018-12-06T15:27:27.992Z,35.03
2018-12-06T15:29:58.004Z,34.43
2018-12-06T15:32:27.513Z,29.37
2018-12-06T15:34:56.830Z,32.25
2018-12-06T15:37:26.462Z,33.55
2018-12-06T15:39:55.302Z,27.55
2018-12-06T15:42:24.041Z,28.55
2018-12-06T15:44:53.568Z,31.25
2018-12-06T15:47:22.298Z,27.70
2018-12-06T15:49:51.512Z,26.33
2018-12-06T15:52:20.922Z,25.88
2018-12-06T15:54:50.790Z,26.45
2018-12-06T15:57:20.550Z,26.15
2018-12-06T15:59:49.644Z,26.50
2018-12-06T16:02:18.788Z,23.85
2018-12-06T16:04:48.410Z,26.50
2018-12-06T16:07:17.306Z,27.48
2018-12-06T16:09:46.762Z,29.07
2018-12-06T16:12:16.426Z,25.97
2018-12-06T16:14:45.986Z,26.12
2018-12-06T16:17:15.246Z,28.75
2018-12-06T16:19:43.901Z,24.95
2018-12-06T16:22:13.618Z,25.32
2018-12-06T16:24:42.965Z,30.60
2018-12-06T16:27:11.945Z,26.68
2018-12-06T16:29:41.521Z,30.95
2018-12-06T16:32:10.980Z,26.73
2018-12-06T16:34:40.703Z,21.75
2018-12-06T16:37:10.173Z,23.35
2018-12-06T16:39:39.649Z,23.32
2018-12-06T16:42:08.750Z,22.67
2018-12-06T16:44:37.796Z,31.55
2018-12-06T16:47:07.667Z,33.20
2018-12-06T16:49:37.507Z,32.98
2018-12-06T16:52:08.038Z,29.40
2018-12-06T16:54:38.411Z,34.25
2018-12-06T16:57:08.760Z,33.53
2018-12-06T16:59:39.236Z,33.15
2018-12-06T17:02:08.806Z,29.00
2018-12-06T17:04:39.026Z,27.35
2018-12-06T17:07:08.241Z,24.90
2018-12-06T17:09:38.068Z,28.77
2018-12-06T17:12:08.606Z,23.83
2018-12-06T17:14:38.443Z,27.73
2018-12-06T17:17:08.566Z,22.82
2018-12-06T17:19:37.575Z,22.70
2018-12-06T17:22:07.063Z,25.80
2018-12-06T17:24:36.892Z,25.90
2018-12-06T17:27:06.790Z,22.70
2018-12-06T17:29:36.974Z,21.17
2018-12-06T17:32:07.143Z,19.23
2018-12-06T17:34:37.695Z,19.80
2018-12-06T17:37:07.988Z,23.00
2018-12-06T17:39:38.286Z,22.87
2018-12-06T17:42:47.036Z,26.02
2018-12-06T17:45:16.492Z,26.40
2018-12-06T17:47:45.592Z,24.30
2018-12-06T17:50:14.899Z,21.27
2018-12-06T17:52:45.228Z,21.02
2018-12-06T17:55:15.353Z,21.30
2018-12-06T17:57:44.920Z,26.27
2018-12-06T18:00:14.379Z,26.65
2018-12-06T18:02:43.797Z,20.40
2018-12-06T18:05:13.144Z,25.50
2018-12-06T18:07:42.714Z,26.85
2018-12-06T18:10:12.277Z,22.42
2018-12-06T18:12:42.397Z,23.27
2018-12-06T18:15:11.695Z,28.52
2018-12-06T18:17:41.473Z,23.12
2018-12-06T18:20:10.908Z,24.98
2018-12-06T18:22:39.815Z,24.00
2018-12-06T18:25:09.594Z,20.35
2018-12-06T18:27:38.467Z,24.75
2018-12-06T18:30:08.575Z,22.42
2018-12-06T18:32:38.037Z,23.50
2018-12-06T18:35:07.626Z,18.20
2018-12-06T18:37:37.885Z,19.80
2018-12-06T18:40:08.090Z,21.17
2018-12-06T18:42:37.773Z,15.58
2018-12-06T18:45:07.599Z,16.77
2018-12-06T18:47:37.278Z,18.70
2018-12-06T18:50:06.596Z,19.75
2018-12-06T18:52:36.267Z,19.17
2018-12-06T18:55:05.418Z,19.95
2018-12-06T18:57:34.260Z,19.57
2018-12-06T19:00:02.913Z,19.95
2018-12-06T19:02:31.583Z,17.32
2018-12-06T19:05:00.330Z,15.38
2018-12-06T19:07:29.318Z,17.57
2018-12-06T19:09:59.355Z,17.62
2018-12-06T19:12:28.042Z,23.30
2018-12-06T19:14:56.989Z,18.35
2018-12-06T19:17:27.330Z,21.82
2018-12-06T19:19:57.317Z,16.02
2018-12-06T19:22:26.312Z,19.00
2018-12-06T19:24:55.319Z,16.32
2018-12-06T19:27:25.304Z,16.02
2018-12-06T19:29:54.090Z,17.50
2018-12-06T19:32:23.111Z,17.20
2018-12-06T19:34:52.149Z,19.73
2018-12-06T19:37:21.490Z,13.28
2018-12-06T19:39:50.440Z,17.12
2018-12-06T19:42:19.765Z,15.88
2018-12-06T19:44:50.116Z,18.37
2018-12-06T19:47:20.276Z,16.45
2018-12-06T19:49:50.960Z,18.80
2018-12-06T19:52:21.598Z,16.73
2018-12-06T19:54:50.187Z,17.37
2018-12-06T19:57:19.869Z,15.68
2018-12-06T19:59:49.335Z,16.35
2018-12-06T20:02:18.288Z,18.85
2018-12-06T20:04:48.076Z,20.70
2018-12-06T20:07:18.190Z,14.35
2018-12-06T20:09:48.027Z,17.60
2018-12-06T20:12:18.807Z,16.17
2018-12-06T20:14:48.359Z,15.80
2018-12-06T20:17:17.361Z,14.83
2018-12-06T20:19:46.147Z,14.38
2018-12-06T20:22:15.743Z,12.68
2018-12-06T20:24:46.025Z,13.80
2018-12-06T20:27:15.881Z,17.07
2018-12-06T20:29:45.258Z,15.90
2018-12-06T20:32:14.986Z,17.95
2018-12-06T20:34:45.144Z,16.12
2018-12-06T20:37:14.963Z,13.30
2018-12-06T20:39:44.456Z,14.90
2018-12-06T20:42:13.757Z,14.90
2018-12-06T20:44:42.565Z,13.60
2018-12-06T20:47:15.891Z,13.75
2018-12-06T20:49:45.150Z,13.88
2018-12-06T20:52:14.030Z,16.48
2018-12-06T20:54:44.250Z,11.68
2018-12-06T20:57:13.115Z,12.78
2018-12-06T20:59:42.225Z,13.43
2018-12-06T21:02:11.204Z,12.55
2018-12-06T21:04:39.901Z,13.90
2018-12-06T21:07:08.937Z,12.55
2018-12-06T21:09:38.584Z,16.00
2018-12-06T21:12:07.577Z,13.05
2018-12-06T21:14:36.772Z,13.38
2018-12-06T21:17:06.223Z,14.47
2018-12-06T21:19:35.554Z,15.05
2018-12-06T21:22:05.373Z,14.93
2018-12-06T21:24:35.097Z,18.60
2018-12-06T21:27:04.276Z,13.05
2018-12-06T21:29:34.187Z,13.62
2018-12-06T21:32:03.239Z,14.45
2018-12-06T21:34:32.495Z,15.10
2018-12-06T21:37:01.367Z,15.72
2018-12-06T21:39:30.242Z,15.98
2018-12-06T21:41:59.137Z,12.13
2018-12-06T21:44:28.000Z,15.70
2018-12-06T21:46:58.797Z,18.67
2018-12-06T21:49:27.678Z,22.00
2018-12-06T21:51:56.547Z,21.40
2018-12-06T21:54:25.491Z,14.30
2018-12-06T21:56:54.331Z,14.35
2018-12-06T21:59:23.187Z,15.38
2018-12-06T22:01:56.588Z,14.10
2018-12-06T22:04:25.436Z,18.42
2018-12-06T22:06:54.529Z,21.60
2018-12-06T22:09:23.550Z,13.90
2018-12-06T22:11:52.379Z,16.82
2018-12-06T22:14:21.169Z,14.68
2018-12-06T22:16:50.241Z,14.53
2018-12-06T22:19:19.898Z,18.02
2018-12-06T22:21:48.602Z,16.10
2018-12-06T22:24:17.451Z,16.73
2018-12-06T22:26:46.774Z,13.78
2018-12-06T22:29:16.067Z,16.12
2018-12-06T22:31:45.344Z,12.82
2018-12-06T22:34:14.484Z,11.78
2018-12-06T22:36:43.076Z,12.60
2018-12-06T22:39:11.498Z,15.50
2018-12-06T22:41:40.115Z,13.95
2018-12-06T22:44:10.113Z,16.17
2018-12-06T22:46:38.800Z,13.88
2018-12-06T22:49:07.160Z,13.45
2018-12-06T22:51:35.830Z,11.60
2018-12-06T22:54:05.135Z,12.35
2018-12-06T22:56:33.994Z,11.45
2018-12-06T22:59:02.640Z,13.45
2018-12-06T23:01:46.597Z,9.93
2018-12-06T23:04:15.159Z,13.53
2018-12-06T23:06:44.074Z,10.78
2018-12-06T23:09:12.634Z,11.53
2018-12-06T23:11:43.315Z,10.65
2018-12-06T23:14:11.731Z,13.03
2018-12-06T23:16:40.330Z,9.60
2018-12-06T23:19:09.037Z,12.40
2018-12-06T23:21:37.544Z,12.23
2018-12-06T23:24:06.475Z,8.33
2018-12-06T23:26:35.061Z,13.35
2018-12-06T23:29:03.934Z,12.93
2018-12-06T23:31:34.007Z,8.88
2018-12-06T23:34:03.294Z,9.85
2018-12-06T23:36:32.094Z,10.85
2018-12-06T23:39:00.749Z,13.58
2018-12-06T23:41:29.441Z,9.25
2018-12-06T23:43:58.230Z,9.45
2018-12-06T23:46:26.706Z,9.45
2018-12-06T23:48:55.165Z,10.03
2018-12-06T23:51:29.165Z,12.33
2018-12-06T23:53:57.700Z,7.95
2018-12-06T23:56:26.987Z,8.90
2018-12-06T23:58:57.604Z,9.78
